Time;durP1;ratioP1;P1;durP2;ratioP2;P2;SDS_P1;SDS_P2;PMS_P1;PMS_P2;Temp;Humidity;BMP_temperature;BMP_pressure;BME280_temperature;BME280_humidity;BME280_pressure;Samples;Min_cycle;Max_cycle;Signal;HPM_P1;HPM_P2
2022/06/27 00:00:40;;;;;;;16.92;8.88;;;;;;;17.29;100.00;101502.91;5034727;28;20026;-50
2022/06/27 00:03:05;;;;;;;18.35;8.60;;;;;;;17.28;100.00;101491.28;5015817;28;20544;-48
2022/06/27 00:05:30;;;;;;;16.45;8.95;;;;;;;17.27;100.00;101494.97;5033289;28;20112;-48
2022/06/27 00:07:56;;;;;;;15.35;8.80;;;;;;;17.24;100.00;101514.25;5027125;28;20105;-49
2022/06/27 00:10:21;;;;;;;17.83;8.82;;;;;;;17.26;100.00;101511.38;5034292;28;20047;-51
2022/06/27 00:12:46;;;;;;;14.02;9.15;;;;;;;17.26;100.00;101500.56;5032094;28;20037;-47
2022/06/27 00:15:12;;;;;;;14.23;8.25;;;;;;;17.25;100.00;101493.50;5033789;28;20081;-49
2022/06/27 00:17:38;;;;;;;16.02;8.63;;;;;;;17.23;100.00;101503.66;5032523;28;20037;-46
2022/06/27 00:20:04;;;;;;;18.67;9.32;;;;;;;17.28;100.00;101509.34;5032545;28;20113;-47
2022/06/27 00:22:29;;;;;;;15.00;9.05;;;;;;;17.27;100.00;101502.25;5030076;28;20100;-49
2022/06/27 00:24:55;;;;;;;16.73;8.93;;;;;;;17.29;100.00;101513.69;5034385;28;20013;-47
2022/06/27 00:27:20;;;;;;;13.00;9.00;;;;;;;17.31;100.00;101503.53;5033917;28;20033;-50
2022/06/27 00:29:46;;;;;;;15.63;9.30;;;;;;;17.28;100.00;101504.78;5034389;28;20021;-50
2022/06/27 00:32:11;;;;;;;17.02;9.15;;;;;;;17.29;100.00;101505.59;5034168;28;20028;-47
2022/06/27 00:34:37;;;;;;;16.27;9.38;;;;;;;17.30;100.00;101516.22;5030330;28;20104;-47
2022/06/27 00:37:03;;;;;;;19.33;9.75;;;;;;;17.30;100.00;101518.91;5031262;28;20057;-48
2022/06/27 00:39:28;;;;;;;20.63;9.93;;;;;;;17.31;100.00;101517.91;5013818;28;20021;-49
2022/06/27 00:41:54;;;;;;;17.67;10.40;;;;;;;17.30;100.00;101527.00;5034387;28;20468;-49
2022/06/27 00:44:34;;;;;;;17.15;9.80;;;;;;;17.26;100.00;101523.03;5034749;28;20029;-50
2022/06/27 00:47:00;;;;;;;20.20;10.10;;;;;;;17.25;100.00;101517.81;5031668;28;20558;-49
2022/06/27 00:49:26;;;;;;;16.98;10.85;;;;;;;17.21;100.00;101516.50;5032514;28;20138;-48
2022/06/27 00:51:52;;;;;;;18.92;10.75;;;;;;;17.23;100.00;101523.41;5012929;28;20108;-51
2022/06/27 00:54:18;;;;;;;20.05;11.52;;;;;;;17.20;100.00;101526.47;5034197;28;20480;-47
2022/06/27 00:56:43;;;;;;;16.70;10.40;;;;;;;17.24;100.00;101532.31;4991512;28;20454;-48
2022/06/27 00:59:09;;;;;;;20.83;11.15;;;;;;;17.25;100.00;101544.81;4991667;28;20026;-50
2022/06/27 01:01:34;;;;;;;18.50;10.88;;;;;;;17.26;100.00;101538.38;4993972;28;20524;-46
2022/06/27 01:04:01;;;;;;;18.65;10.65;;;;;;;17.26;100.00;101532.97;4992575;28;20185;-49
2022/06/27 01:06:28;;;;;;;19.17;10.50;;;;;;;17.23;100.00;101534.19;4991643;28;20100;-50
2022/06/27 01:08:54;;;;;;;16.00;10.48;;;;;;;17.24;100.00;101537.72;4990148;28;20415;-50
2022/06/27 01:11:20;;;;;;;19.50;10.27;;;;;;;17.24;100.00;101532.31;4993251;28;20083;-47
2022/06/27 01:13:46;;;;;;;21.35;10.32;;;;;;;17.27;100.00;101532.78;4992909;28;20045;-48
2022/06/27 01:16:11;;;;;;;17.75;10.80;;;;;;;17.28;100.00;101531.75;4991841;28;20453;-48
2022/06/27 01:18:37;;;;;;;17.10;10.32;;;;;;;17.21;100.00;101533.53;5006310;28;20103;-47
2022/06/27 01:21:03;;;;;;;13.52;10.35;;;;;;;17.18;100.00;101536.63;4990886;28;20430;-49
2022/06/27 01:23:28;;;;;;;16.40;10.77;;;;;;;17.17;100.00;101536.81;4993561;28;20099;-48
2022/06/27 01:25:54;;;;;;;19.85;10.40;;;;;;;17.19;100.00;101543.66;4993477;28;20026;-46
2022/06/27 01:28:20;;;;;;;15.70;10.15;;;;;;;17.20;100.00;101548.06;4994309;28;20029;-48
2022/06/27 01:30:45;;;;;;;15.73;10.07;;;;;;;17.20;100.00;101542.66;4990621;28;20369;-50
2022/06/27 01:33:11;;;;;;;17.50;10.30;;;;;;;17.19;100.00;101550.94;4992324;28;20018;-47
2022/06/27 01:35:36;;;;;;;22.23;10.10;;;;;;;17.16;100.00;101546.78;4975611;28;20404;-48
2022/06/27 01:38:02;;;;;;;17.10;10.45;;;;;;;17.13;100.00;101542.56;4990911;28;20049;-46
2022/06/27 01:40:27;;;;;;;17.02;10.82;;;;;;;17.12;100.00;101523.88;4993304;28;20022;-45
2022/06/27 01:42:53;;;;;;;17.45;9.55;;;;;;;17.07;100.00;101521.72;4993044;28;20440;-48
2022/06/27 01:45:18;;;;;;;23.40;10.40;;;;;;;17.01;100.00;101522.47;4991553;28;20040;-46
2022/06/27 01:47:44;;;;;;;18.88;10.07;;;;;;;17.01;100.00;101506.28;4990911;28;20022;-47
2022/06/27 01:50:11;;;;;;;16.95;10.10;;;;;;;17.01;100.00;101500.91;4991189;28;20025;-49
2022/06/27 01:52:38;;;;;;;18.00;10.45;;;;;;;17.01;100.00;101491.97;4990688;28;20489;-47
2022/06/27 01:55:04;;;;;;;16.27;10.32;;;;;;;17.01;100.00;101487.41;5000007;28;20049;-49
2022/06/27 01:57:29;;;;;;;16.20;10.75;;;;;;;16.98;100.00;101501.28;5032496;28;20027;-50
2022/06/27 01:59:55;;;;;;;17.77;11.07;;;;;;;16.90;100.00;101499.50;5032431;28;20009;-50
2022/06/27 02:02:21;;;;;;;18.90;11.05;;;;;;;16.86;100.00;101491.97;5031920;28;20055;-50
2022/06/27 02:04:47;;;;;;;16.63;10.55;;;;;;;16.78;100.00;101487.47;5030830;28;20057;-47
2022/06/27 02:07:12;;;;;;;20.10;11.10;;;;;;;16.73;100.00;101487.19;5026954;28;20129;-49
2022/06/27 02:09:38;;;;;;;15.52;9.95;;;;;;;16.71;100.00;101483.84;5031172;28;20035;-50
2022/06/27 02:12:19;;;;;;;16.15;10.15;;;;;;;16.67;100.00;101474.47;5031098;28;20035;-49
2022/06/27 02:14:47;;;;;;;17.10;10.25;;;;;;;16.69;100.00;101480.50;5031192;28;20503;-50
2022/06/27 02:17:12;;;;;;;18.75;10.07;;;;;;;16.71;100.00;101481.97;5025544;28;20024;-46
2022/06/27 02:19:40;;;;;;;16.27;10.75;;;;;;;16.70;100.00;101476.78;5031438;28;20033;-50
2022/06/27 02:22:06;;;;;;;18.15;10.50;;;;;;;16.65;100.00;101473.78;5028808;28;20148;-48
2022/06/27 02:24:32;;;;;;;19.67;11.35;;;;;;;16.58;100.00;101479.09;5032691;28;20418;-49
2022/06/27 02:26:57;;;;;;;21.60;10.60;;;;;;;16.60;100.00;101471.69;5032667;28;20120;-49
2022/06/27 02:29:22;;;;;;;16.10;10.40;;;;;;;16.63;100.00;101473.16;5032399;28;20009;-47
2022/06/27 02:31:49;;;;;;;17.65;10.32;;;;;;;16.67;100.00;101467.22;5029805;28;20039;-48
2022/06/27 02:34:16;;;;;;;14.27;10.35;;;;;;;16.70;100.00;101463.28;5026998;28;20021;-48
2022/06/27 02:36:42;;;;;;;15.10;10.52;;;;;;;16.76;100.00;101460.69;5029967;28;20090;-48
2022/06/27 02:39:10;;;;;;;16.08;10.75;;;;;;;16.78;100.00;101457.81;5011604;28;20060;-50
2022/06/27 02:41:39;;;;;;;17.33;10.80;;;;;;;16.77;100.00;101450.75;5032182;28;20352;-50
2022/06/27 02:44:07;;;;;;;19.45;11.45;;;;;;;16.79;100.00;101452.22;5029914;28;20079;-49
2022/06/27 02:46:33;;;;;;;17.25;10.93;;;;;;;16.82;100.00;101456.41;5030733;28;20779;-48
2022/06/27 02:49:00;;;;;;;18.55;11.63;;;;;;;16.81;100.00;101448.50;5031375;28;20082;-46
2022/06/27 02:51:28;;;;;;;18.42;11.05;;;;;;;16.78;100.00;101450.56;5031148;28;20376;-50
2022/06/27 02:54:07;;;;;;;18.52;11.68;;;;;;;16.76;100.00;101452.59;5033513;28;20055;-48
2022/06/27 02:56:38;;;;;;;17.67;11.77;;;;;;;16.74;100.00;101445.72;5026989;28;20386;-51
2022/06/27 02:59:12;;;;;;;22.15;11.35;;;;;;;16.72;100.00;101437.00;5030845;28;20064;-48
2022/06/27 03:01:38;;;;;;;19.55;11.18;;;;;;;16.69;100.00;101432.78;5014095;28;20116;-47
2022/06/27 03:04:04;;;;;;;19.38;12.05;;;;;;;16.63;100.00;101432.69;5031540;28;20341;-50
2022/06/27 03:06:29;;;;;;;17.02;11.35;;;;;;;16.57;100.00;101435.13;5029954;28;20121;-47
2022/06/27 03:08:55;;;;;;;17.80;11.38;;;;;;;16.54;100.00;101435.47;5031862;28;20329;-49
2022/06/27 03:11:22;;;;;;;24.75;12.50;;;;;;;16.50;100.00;101425.28;5032267;28;20013;-49
2022/06/27 03:13:49;;;;;;;20.08;10.93;;;;;;;16.41;100.00;101419.97;5031892;28;20139;-48
2022/06/27 03:16:16;;;;;;;19.80;11.70;;;;;;;16.31;100.00;101419.41;5032018;28;20040;-47
2022/06/27 03:18:42;;;;;;;20.42;11.50;;;;;;;16.27;100.00;101420.78;5035383;28;20497;-47
2022/06/27 03:21:07;;;;;;;18.38;11.85;;;;;;;16.20;100.00;101428.78;5032716;28;20221;-51
2022/06/27 03:23:33;;;;;;;26.88;12.52;;;;;;;16.17;100.00;101431.00;5034075;28;20025;-48
2022/06/27 03:25:59;;;;;;;27.33;13.60;;;;;;;16.09;100.00;101431.06;5031874;28;20025;-49
2022/06/27 03:28:25;;;;;;;26.17;12.82;;;;;;;16.02;100.00;101425.56;5035298;28;20499;-50
2022/06/27 03:30:50;;;;;;;29.92;12.85;;;;;;;15.98;100.00;101430.50;5033887;28;20087;-49
2022/06/27 03:33:16;;;;;;;24.73;13.13;;;;;;;15.95;100.00;101425.47;5035489;28;20106;-50
2022/06/27 03:35:42;;;;;;;20.20;12.55;;;;;;;15.91;100.00;101426.88;5033986;28;20503;-45
2022/06/27 03:38:07;;;;;;;26.90;13.77;;;;;;;15.86;100.00;101413.09;5033470;28;20017;-50
2022/06/27 03:40:34;;;;;;;25.05;13.48;;;;;;;15.88;100.00;101421.84;5033016;28;20160;-50
2022/06/27 03:43:00;;;;;;;21.23;12.63;;;;;;;15.82;100.00;101418.03;5031974;28;20033;-49
2022/06/27 03:45:25;;;;;;;26.23;13.35;;;;;;;15.78;100.00;101421.25;5034445;28;20032;-48
2022/06/27 03:47:53;;;;;;;19.48;13.30;;;;;;;15.71;100.00;101422.97;5033576;28;20021;-50
2022/06/27 03:50:20;;;;;;;22.65;13.93;;;;;;;15.66;100.00;101410.03;5034444;28;20045;-49
2022/06/27 03:52:45;;;;;;;21.65;13.57;;;;;;;15.61;100.00;101417.81;5034498;28;20036;-47
2022/06/27 03:55:12;;;;;;;23.95;13.40;;;;;;;15.64;100.00;101423.69;5033708;28;20503;-45
2022/06/27 03:57:38;;;;;;;26.85;13.75;;;;;;;15.66;100.00;101418.13;5033535;28;20524;-48
2022/06/27 04:00:08;;;;;;;20.98;12.75;;;;;;;15.66;100.00;101424.38;5032129;28;20018;-48
2022/06/27 04:02:34;;;;;;;24.17;13.45;;;;;;;15.62;100.00;101420.34;5034227;28;20058;-48
2022/06/27 04:05:00;;;;;;;18.55;12.95;;;;;;;15.66;100.00;101423.50;5033205;28;20277;-50
2022/06/27 04:07:25;;;;;;;23.25;13.10;;;;;;;15.69;100.00;101436.63;5034177;28;20021;-51
2022/06/27 04:09:50;;;;;;;17.85;12.88;;;;;;;15.74;100.00;101447.69;5035958;28;20525;-49
2022/06/27 04:12:16;;;;;;;22.45;13.70;;;;;;;15.82;100.00;101446.81;5032522;28;20391;-47
2022/06/27 04:14:41;;;;;;;16.55;12.25;;;;;;;15.89;100.00;101437.00;5032713;28;20416;-50
2022/06/27 04:17:06;;;;;;;17.95;12.77;;;;;;;15.99;100.00;101425.97;5031712;28;20035;-46
2022/06/27 04:19:31;;;;;;;21.88;13.15;;;;;;;16.11;100.00;101440.66;5035209;28;20498;-47
2022/06/27 04:21:57;;;;;;;19.50;13.75;;;;;;;16.20;100.00;101446.81;5034428;28;20048;-50
2022/06/27 04:24:22;;;;;;;21.83;13.27;;;;;;;16.26;100.00;101439.84;5031951;28;20024;-49
2022/06/27 04:26:48;;;;;;;19.55;12.70;;;;;;;16.31;100.00;101449.06;5035509;28;20083;-46
2022/06/27 04:29:13;;;;;;;23.50;13.20;;;;;;;16.41;100.00;101429.91;5019322;28;20344;-49
2022/06/27 04:31:38;;;;;;;21.73;13.25;;;;;;;16.52;100.00;101407.88;5015641;28;20040;-47
2022/06/27 04:34:04;;;;;;;21.08;13.23;;;;;;;16.63;100.00;101400.34;5016891;28;20110;-51
2022/06/27 04:36:30;;;;;;;26.77;13.82;;;;;;;16.67;100.00;101410.56;5015649;28;20273;-47
2022/06/27 04:38:56;;;;;;;21.40;14.38;;;;;;;16.73;100.00;101417.06;5025857;28;20021;-51
2022/06/27 04:41:21;;;;;;;26.52;15.25;;;;;;;16.77;100.00;101388.72;5017087;28;20054;-48
2022/06/27 04:43:47;;;;;;;23.50;15.52;;;;;;;16.81;100.00;101375.69;5017199;28;20134;-51
2022/06/27 04:46:13;;;;;;;26.02;15.98;;;;;;;16.81;100.00;101364.88;5015848;28;20025;-51
2022/06/27 04:48:38;;;;;;;25.00;16.92;;;;;;;16.81;100.00;101356.78;5017767;28;20025;-50
2022/06/27 04:51:06;;;;;;;26.77;17.00;;;;;;;16.85;100.00;101371.59;5019376;28;20057;-49
2022/06/27 04:53:32;;;;;;;29.60;17.27;;;;;;;16.86;100.00;101375.97;5017213;28;20440;-50
2022/06/27 04:55:57;;;;;;;28.30;16.15;;;;;;;16.87;100.00;101383.03;5016240;28;20084;-48
2022/06/27 04:58:23;;;;;;;27.15;16.38;;;;;;;16.92;100.00;101384.16;5016946;28;20048;-47
2022/06/27 05:00:48;;;;;;;24.20;16.55;;;;;;;16.95;100.00;101404.50;5016362;28;20049;-49
2022/06/27 05:03:14;;;;;;;27.35;17.10;;;;;;;16.96;100.00;101400.78;5016914;28;20052;-48
2022/06/27 05:05:39;;;;;;;31.00;17.88;;;;;;;17.00;100.00;101399.38;5027947;28;20444;-49
2022/06/27 05:08:05;;;;;;;29.88;18.25;;;;;;;17.00;100.00;101390.44;5027573;28;20025;-48
2022/06/27 05:10:30;;;;;;;26.88;16.92;;;;;;;16.99;100.00;101395.03;5013811;28;20028;-47
2022/06/27 05:12:56;;;;;;;30.00;17.10;;;;;;;17.02;100.00;101389.22;5022760;28;20090;-49
2022/06/27 05:15:21;;;;;;;30.70;17.92;;;;;;;17.00;100.00;101377.78;5016187;28;20022;-49
2022/06/27 05:17:46;;;;;;;29.80;17.48;;;;;;;16.99;100.00;101370.72;5005564;28;20127;-49
2022/06/27 05:20:12;;;;;;;33.92;17.55;;;;;;;17.03;100.00;101360.38;5034142;28;20025;-50
2022/06/27 05:22:38;;;;;;;34.20;17.60;;;;;;;17.00;100.00;101385.06;5026149;28;20044;-49
2022/06/27 05:25:04;;;;;;;25.88;17.35;;;;;;;17.00;100.00;101393.16;5017791;28;20472;-51
2022/06/27 05:27:29;;;;;;;29.40;18.25;;;;;;;16.98;100.00;101387.94;5030130;28;20092;-50
2022/06/27 05:29:55;;;;;;;35.17;18.50;;;;;;;16.96;100.00;101396.22;5027373;28;20037;-49
2022/06/27 05:32:20;;;;;;;29.83;18.48;;;;;;;16.96;100.00;101392.69;5018386;28;20037;-51
2022/06/27 05:34:46;;;;;;;28.73;18.42;;;;;;;16.98;100.00;101390.63;5016261;28;20021;-51
2022/06/27 05:37:12;;;;;;;30.10;18.33;;;;;;;16.99;100.00;101399.56;5012254;28;20047;-47
2022/06/27 05:39:37;;;;;;;27.92;18.50;;;;;;;16.97;100.00;101407.84;5016426;28;20076;-50
2022/06/27 05:42:03;;;;;;;29.52;17.83;;;;;;;16.99;100.00;101435.50;5015577;28;20035;-50
2022/06/27 05:44:29;;;;;;;28.85;18.00;;;;;;;17.00;100.00;101455.22;5015967;28;20456;-46
2022/06/27 05:46:56;;;;;;;33.00;19.85;;;;;;;17.08;100.00;101480.22;5015287;28;20037;-50
2022/06/27 05:49:22;;;;;;;27.95;18.38;;;;;;;17.11;100.00;101487.94;5021586;28;20460;-50
2022/06/27 05:51:48;;;;;;;26.17;17.95;;;;;;;17.11;100.00;101479.84;5014657;28;20013;-50
2022/06/27 05:54:14;;;;;;;25.67;17.95;;;;;;;17.12;100.00;101488.78;5024651;28;20041;-49
2022/06/27 05:56:39;;;;;;;33.50;18.48;;;;;;;17.09;100.00;101505.34;5015169;28;20491;-49
2022/06/27 05:59:06;;;;;;;31.80;18.95;;;;;;;17.06;100.00;101509.25;5015333;28;20507;-50
2022/06/27 06:01:31;;;;;;;35.60;20.15;;;;;;;16.98;100.00;101520.16;5014976;28;20102;-46
2022/06/27 06:03:57;;;;;;;36.53;20.33;;;;;;;16.97;100.00;101513.06;5015189;28;20037;-47
2022/06/27 06:06:24;;;;;;;33.55;19.52;;;;;;;16.96;100.00;101512.25;5014493;28;20472;-50
2022/06/27 06:08:50;;;;;;;35.78;20.08;;;;;;;17.00;100.00;101501.09;5023005;28;20010;-51
2022/06/27 06:11:15;;;;;;;34.85;20.95;;;;;;;17.05;100.00;101501.34;5017121;28;20062;-49
2022/06/27 06:13:41;;;;;;;33.20;20.15;;;;;;;17.14;100.00;101484.03;5029129;28;20132;-51
2022/06/27 06:16:10;;;;;;;30.27;19.40;;;;;;;17.20;100.00;101483.28;5014297;28;20476;-50
2022/06/27 06:18:35;;;;;;;33.15;20.52;;;;;;;17.24;100.00;101484.56;5029179;28;20029;-49
2022/06/27 06:21:01;;;;;;;34.85;20.27;;;;;;;17.26;100.00;101484.38;5033575;28;20036;-49
2022/06/27 06:23:27;;;;;;;31.52;19.45;;;;;;;17.31;100.00;101490.03;5034305;28;20029;-47
2022/06/27 06:25:53;;;;;;;28.92;19.70;;;;;;;17.32;100.00;101491.72;5035190;28;20152;-46
2022/06/27 06:28:19;;;;;;;29.92;19.13;;;;;;;17.32;100.00;101508.75;5034066;28;20121;-46
2022/06/27 06:30:44;;;;;;;35.50;20.67;;;;;;;17.37;100.00;101519.00;5034115;28;20067;-51
2022/06/27 06:33:10;;;;;;;38.35;20.38;;;;;;;17.40;100.00;101524.00;5030860;28;20032;-48
2022/06/27 06:35:36;;;;;;;31.20;19.88;;;;;;;17.37;100.00;101521.69;5019505;28;20037;-47
2022/06/27 06:38:02;;;;;;;32.90;19.73;;;;;;;17.33;100.00;101517.72;5023610;28;20100;-51
2022/06/27 06:40:29;;;;;;;37.65;20.77;;;;;;;17.27;100.00;101508.47;5015151;28;20033;-50
2022/06/27 06:42:54;;;;;;;31.15;20.35;;;;;;;17.27;100.00;101513.88;5017927;28;20453;-47
2022/06/27 06:45:20;;;;;;;31.52;20.85;;;;;;;17.28;100.00;101502.06;5023447;28;20029;-48
2022/06/27 06:47:48;;;;;;;41.63;21.23;;;;;;;17.29;100.00;101500.19;5013891;28;20436;-47
2022/06/27 06:50:18;;;;;;;35.47;20.63;;;;;;;17.29;100.00;101478.59;5020645;28;20590;-49
2022/06/27 06:52:49;;;;;;;34.35;20.05;;;;;;;17.38;100.00;101458.56;5034627;28;20036;-48
2022/06/27 06:55:16;;;;;;;35.13;20.48;;;;;;;17.50;100.00;101448.94;5018350;28;20049;-49
2022/06/27 06:57:41;;;;;;;32.15;20.23;;;;;;;17.53;100.00;101448.56;5017448;28;20104;-49
2022/06/27 07:00:09;;;;;;;34.63;20.50;;;;;;;17.62;100.00;101451.13;5017738;28;20050;-50
2022/06/27 07:02:35;;;;;;;38.60;21.63;;;;;;;17.70;100.00;101434.75;5017047;28;20041;-47
2022/06/27 07:05:08;;;;;;;32.67;20.83;;;;;;;17.83;100.00;101436.75;5016207;28;20025;-47
2022/06/27 07:07:34;;;;;;;37.53;20.35;;;;;;;17.90;100.00;101445.78;5022352;28;20021;-51
2022/06/27 07:10:00;;;;;;;39.20;21.25;;;;;;;17.96;100.00;101452.28;5019471;28;20044;-48
2022/06/27 07:12:26;;;;;;;31.40;20.20;;;;;;;18.12;100.00;101454.69;5017764;28;20029;-48
2022/06/27 07:14:54;;;;;;;31.40;19.02;;;;;;;18.20;100.00;101451.84;5018697;28;20022;-47
2022/06/27 07:17:21;;;;;;;34.42;19.45;;;;;;;18.29;100.00;101432.78;5021313;28;20124;-48
2022/06/27 07:19:48;;;;;;;31.98;19.55;;;;;;;18.42;100.00;101438.28;5038130;28;20041;-48
2022/06/27 07:22:14;;;;;;;29.63;19.05;;;;;;;18.43;100.00;101440.78;5019053;28;20312;-47
2022/06/27 07:24:42;;;;;;;33.10;18.52;;;;;;;18.40;100.00;101475.50;5038387;28;20115;-51
2022/06/27 07:27:08;;;;;;;30.75;19.45;;;;;;;18.39;100.00;101471.13;5037149;28;20063;-47
2022/06/27 07:29:34;;;;;;;37.53;18.80;;;;;;;18.42;100.00;101471.56;5038802;28;20021;-48
2022/06/27 07:31:59;;;;;;;31.42;19.42;;;;;;;18.54;100.00;101484.53;5014615;28;20647;-50
2022/06/27 07:34:25;;;;;;;37.10;19.35;;;;;;;18.72;100.00;101502.94;5031068;28;20041;-50
2022/06/27 07:36:51;;;;;;;29.08;18.05;;;;;;;18.89;100.00;101493.53;5033856;28;20070;-48
2022/06/27 07:39:17;;;;;;;28.88;17.38;;;;;;;19.22;100.00;101487.41;5033620;28;20036;-48
2022/06/27 07:41:44;;;;;;;31.27;16.80;;;;;;;19.41;100.00;101496.63;5027820;28;20029;-50
2022/06/27 07:44:10;;;;;;;27.23;16.80;;;;;;;19.48;100.00;101497.47;5017778;28;20048;-51
2022/06/27 07:46:35;;;;;;;31.90;18.20;;;;;;;19.49;100.00;101484.78;5017436;28;20479;-46
2022/06/27 07:49:01;;;;;;;26.58;16.85;;;;;;;19.58;100.00;101499.81;5017303;28;20028;-47
2022/06/27 07:51:27;;;;;;;31.63;16.17;;;;;;;19.62;100.00;101494.81;5016555;28;20025;-50
2022/06/27 07:53:52;;;;;;;26.00;16.52;;;;;;;19.67;100.00;101492.31;5018445;28;20108;-49
2022/06/27 07:56:20;;;;;;;27.95;16.55;;;;;;;19.73;100.00;101503.16;5017264;28;20132;-48
2022/06/27 07:58:45;;;;;;;31.30;16.35;;;;;;;19.71;100.00;101516.09;5026139;28;21889;-50
2022/06/27 08:01:14;;;;;;;27.65;16.13;;;;;;;19.62;100.00;101525.47;5016303;28;20072;-48
2022/06/27 08:03:40;;;;;;;24.35;15.95;;;;;;;19.51;100.00;101518.75;5017070;28;20033;-48
2022/06/27 08:06:25;;;;;;;25.77;15.55;;;;;;;19.44;100.00;101522.50;5016144;28;20026;-48
2022/06/27 08:08:53;;;;;;;26.33;15.82;;;;;;;19.45;100.00;101527.72;5023932;28;20380;-50
2022/06/27 08:11:24;;;;;;;27.27;14.70;;;;;;;19.56;100.00;101531.69;5017398;28;20032;-48
2022/06/27 08:13:52;;;;;;;27.80;15.10;;;;;;;19.72;100.00;101520.47;5017327;28;20029;-49
2022/06/27 08:16:20;;;;;;;25.95;14.68;;;;;;;19.82;100.00;101516.56;5008284;28;20060;-51
2022/06/27 08:18:47;;;;;;;26.85;14.50;;;;;;;19.94;100.00;101533.88;5037014;28;20056;-51
2022/06/27 08:21:16;;;;;;;27.05;14.10;;;;;;;20.08;100.00;101532.88;5016819;28;20136;-50
2022/06/27 08:23:42;;;;;;;24.85;13.45;;;;;;;20.10;100.00;101513.69;5037153;28;20188;-50
2022/06/27 08:26:09;;;;;;;22.35;13.27;;;;;;;20.23;100.00;101510.97;5036859;28;20485;-48
2022/06/27 08:28:36;;;;;;;28.23;12.95;;;;;;;20.25;100.00;101524.31;5037054;28;20028;-48
2022/06/27 08:31:07;;;;;;;22.23;12.30;;;;;;;20.22;100.00;101524.72;5036152;28;20442;-47
2022/06/27 08:33:33;;;;;;;26.15;12.45;;;;;;;20.07;100.00;101544.75;5036490;28;20033;-48
2022/06/27 08:36:01;;;;;;;23.55;12.30;;;;;;;19.85;100.00;101556.81;5034712;28;20033;-48
2022/06/27 08:38:26;;;;;;;20.92;11.60;;;;;;;19.73;100.00;101557.38;5036759;28;20051;-50
2022/06/27 08:40:56;;;;;;;20.73;11.35;;;;;;;19.57;100.00;101561.28;5037021;28;20021;-50
2022/06/27 08:43:23;;;;;;;23.02;12.32;;;;;;;19.45;100.00;101554.78;5036693;28;20514;-49
2022/06/27 08:45:51;;;;;;;20.45;11.60;;;;;;;19.38;100.00;101560.19;5036087;28;20408;-49
2022/06/27 08:48:17;;;;;;;24.50;11.98;;;;;;;19.35;100.00;101554.34;5035716;28;20036;-50
2022/06/27 08:50:44;;;;;;;21.33;12.75;;;;;;;19.44;100.00;101555.81;5035155;28;20372;-48
2022/06/27 08:53:12;;;;;;;22.95;11.70;;;;;;;19.48;100.00;101553.53;5036222;28;20021;-48
2022/06/27 08:55:42;;;;;;;19.08;12.13;;;;;;;19.51;100.00;101551.25;5033093;28;20061;-49
2022/06/27 08:58:10;;;;;;;21.48;12.38;;;;;;;19.58;100.00;101551.28;5023784;28;20194;-49
2022/06/27 09:00:41;;;;;;;24.92;12.38;;;;;;;19.61;100.00;101552.75;5025441;28;20348;-50
2022/06/27 09:03:07;;;;;;;18.63;11.73;;;;;;;19.66;100.00;101556.53;5016147;28;20048;-49
2022/06/27 09:05:33;;;;;;;19.00;11.77;;;;;;;19.79;100.00;101555.75;5024409;28;20116;-50
2022/06/27 09:08:02;;;;;;;19.95;11.52;;;;;;;20.01;100.00;101556.44;5022459;28;20029;-48
2022/06/27 09:10:31;;;;;;;18.63;11.10;;;;;;;20.26;100.00;101580.22;5016897;28;20495;-50
2022/06/27 09:13:17;;;;;;;27.52;12.52;;;;;;;20.42;99.82;101587.13;5015446;28;20432;-48
2022/06/27 09:15:45;;;;;;;22.40;11.70;;;;;;;20.38;99.51;101573.13;5025762;28;20510;-47
2022/06/27 09:18:13;;;;;;;20.85;11.65;;;;;;;20.33;99.08;101570.22;5032795;28;20032;-47
2022/06/27 09:24:01;;;;;;;18.00;10.75;;;;;;;20.79;98.27;101552.25;4915377;23;20081;-50
2022/06/27 09:26:31;;;;;;;20.25;10.95;;;;;;;21.09;95.42;101551.78;5010069;28;20546;-49
2022/06/27 09:29:03;;;;;;;20.33;11.57;;;;;;;21.32;93.21;101556.72;5012704;28;20182;-51
2022/06/27 09:31:37;;;;;;;17.35;10.63;;;;;;;21.32;92.35;101570.31;4997105;28;20025;-48
2022/06/27 09:34:18;;;;;;;17.25;10.32;;;;;;;21.25;93.19;101578.47;5004216;28;20420;-50
2022/06/27 09:36:55;;;;;;;19.05;10.25;;;;;;;21.04;91.30;101579.56;4994045;28;20079;-50
2022/06/27 09:39:20;;;;;;;22.75;11.20;;;;;;;20.97;92.03;101579.56;5004016;28;20025;-48
2022/06/27 09:41:58;;;;;;;20.38;12.82;;;;;;;21.03;94.71;101572.47;5010418;28;20040;-51
2022/06/27 09:44:27;;;;;;;18.27;12.35;;;;;;;21.18;96.86;101567.63;4992474;28;20026;-49
2022/06/27 09:47:20;;;;;;;28.08;14.40;;;;;;;21.47;95.01;101576.31;5000226;28;20030;-50
2022/06/27 09:49:51;;;;;;;26.63;12.48;;;;;;;21.52;91.67;101570.22;5000570;28;20084;-48
2022/06/27 09:52:21;;;;;;;22.75;13.10;;;;;;;21.53;92.32;101571.91;4999078;28;20097;-52
2022/06/27 09:54:48;;;;;;;25.58;13.60;;;;;;;21.49;90.49;101568.78;5015363;28;20359;-48
2022/06/27 09:57:16;;;;;;;22.60;12.07;;;;;;;21.61;91.71;101571.66;5018355;28;20041;-50
2022/06/27 09:59:45;;;;;;;23.67;12.98;;;;;;;21.79;90.42;101566.34;5018819;28;20360;-51
2022/06/27 10:02:13;;;;;;;23.35;12.60;;;;;;;21.82;89.65;101564.22;5005832;28;20021;-48
2022/06/27 10:04:40;;;;;;;23.25;12.90;;;;;;;21.72;89.65;101557.34;5015106;28;20156;-50
2022/06/27 10:07:13;;;;;;;24.10;12.23;;;;;;;21.64;91.59;101554.91;4998026;28;20048;-49
2022/06/27 10:09:40;;;;;;;20.02;12.00;;;;;;;21.61;91.49;101555.34;4995690;28;20017;-49
2022/06/27 10:12:22;;;;;;;18.83;12.50;;;;;;;21.88;93.91;101550.59;4999770;28;20083;-49
2022/06/27 10:15:09;;;;;;;25.40;13.45;;;;;;;22.07;92.00;101547.94;5000322;28;20041;-51
2022/06/27 10:17:36;;;;;;;19.65;11.93;;;;;;;22.25;91.03;101547.16;4999186;28;20053;-50
2022/06/27 10:20:26;;;;;;;21.45;11.05;;;;;;;22.63;89.73;101543.53;5002576;28;20327;-51
2022/06/27 10:23:04;;;;;;;20.00;12.43;;;;;;;22.83;86.80;101543.31;5012476;28;20064;-51
2022/06/27 10:25:29;;;;;;;19.88;11.85;;;;;;;23.16;84.18;101539.41;5001755;28;20567;-50
2022/06/27 10:28:13;;;;;;;21.60;11.63;;;;;;;23.33;85.39;101545.91;5007532;28;20109;-51
2022/06/27 10:30:56;;;;;;;21.40;11.20;;;;;;;23.41;82.60;101544.75;5012828;28;20468;-49
2022/06/27 10:33:28;;;;;;;24.00;12.48;;;;;;;23.57;82.48;101540.56;5013461;28;20030;-53
2022/06/27 10:36:02;;;;;;;20.38;10.90;;;;;;;23.29;79.36;101533.81;4999577;28;20064;-51
2022/06/27 10:38:42;;;;;;;16.00;9.18;;;;;;;23.29;81.58;101531.06;4995291;28;20030;-52
2022/06/27 10:41:39;;;;;;;19.02;8.70;;;;;;;23.33;81.16;101543.16;4999247;28;20524;-47
2022/06/27 10:44:29;;;;;;;18.65;10.70;;;;;;;23.25;82.85;101541.59;5013311;28;20091;-50
2022/06/27 10:47:33;;;;;;;16.70;8.30;;;;;;;23.22;83.06;101550.22;5015185;28;20141;-51
2022/06/27 10:50:38;;;;;;;19.70;9.43;;;;;;;22.99;82.84;101555.50;5016057;28;20061;-47
2022/06/27 10:53:19;;;;;;;16.52;9.07;;;;;;;22.69;81.66;101556.22;4933254;28;20055;-51
2022/06/27 10:55:45;;;;;;;14.45;7.70;;;;;;;22.43;80.12;101546.44;4954525;28;20641;-50
2022/06/27 10:58:30;;;;;;;14.07;7.35;;;;;;;22.40;84.20;101547.69;4997988;28;20042;-50
2022/06/27 11:01:15;;;;;;;23.35;7.13;;;;;;;22.23;82.32;101557.44;4999617;28;20030;-51
2022/06/27 11:03:41;;;;;;;13.70;5.00;;;;;;;21.95;77.98;101551.38;4997969;28;20037;-50
2022/06/27 11:06:08;;;;;;;12.30;4.40;;;;;;;21.95;78.80;101555.97;4998039;28;20036;-52
2022/06/27 11:09:18;;;;;;;13.23;4.65;;;;;;;21.85;81.01;101563.78;4998525;28;20101;-49
2022/06/27 11:11:43;;;;;;;15.80;4.60;;;;;;;21.72;79.96;101562.78;4999794;28;20188;-51